sensor_id;sensor_type;location;lat;lon;timestamp;pressure;altitude;pressure_sealevel;temperature;humidity
55171;BME280;41060;47.510;8.680;2024-01-10T00:01:48;97777.72;;;-1.45;55.24
55171;BME280;41060;47.510;8.680;2024-01-10T00:04:15;97774.81;;;-1.31;55.80
55171;BME280;41060;47.510;8.680;2024-01-10T00:06:42;97770.63;;;-1.37;55.10
55171;BME280;41060;47.510;8.680;2024-01-10T00:09:10;97766.09;;;-1.27;54.96
55171;BME280;41060;47.510;8.680;2024-01-10T00:11:37;97724.34;;;-1.58;55.37
55171;BME280;41060;47.510;8.680;2024-01-10T00:14:04;97765.50;;;-1.40;55.41
55171;BME280;41060;47.510;8.680;2024-01-10T00:16:33;97770.69;;;-1.40;55.71
55171;BME280;41060;47.510;8.680;2024-01-10T00:18:59;97764.38;;;-1.28;55.28
55171;BME280;41060;47.510;8.680;2024-01-10T00:21:26;97764.59;;;-1.39;55.38
55171;BME280;41060;47.510;8.680;2024-01-10T00:23:53;97750.03;;;-1.46;55.55
55171;BME280;41060;47.510;8.680;2024-01-10T00:26:20;97769.38;;;-1.59;56.24
55171;BME280;41060;47.510;8.680;2024-01-10T00:28:47;97769.47;;;-1.63;55.90
55171;BME280;41060;47.510;8.680;2024-01-10T00:31:14;97769.06;;;-1.45;55.85
55171;BME280;41060;47.510;8.680;2024-01-10T00:33:42;97764.44;;;-1.31;55.67
55171;BME280;41060;47.510;8.680;2024-01-10T00:36:08;97765.41;;;-1.35;55.41
55171;BME280;41060;47.510;8.680;2024-01-10T00:38:36;97764.66;;;-1.40;55.41
55171;BME280;41060;47.510;8.680;2024-01-10T00:41:03;97768.22;;;-1.46;55.83
55171;BME280;41060;47.510;8.680;2024-01-10T00:43:29;97762.91;;;-1.40;55.59
55171;BME280;41060;47.510;8.680;2024-01-10T00:45:57;97758.25;;;-1.25;55.35
55171;BME280;41060;47.510;8.680;2024-01-10T00:48:23;97765.94;;;-1.21;54.76
55171;BME280;41060;47.510;8.680;2024-01-10T00:50:51;97766.19;;;-1.31;55.21
55171;BME280;41060;47.510;8.680;2024-01-10T00:53:18;97761.28;;;-1.45;55.60
55171;BME280;41060;47.510;8.680;2024-01-10T00:55:45;97753.31;;;-1.38;55.63
55171;BME280;41060;47.510;8.680;2024-01-10T00:58:12;97757.53;;;-1.32;55.59
55171;BME280;41060;47.510;8.680;2024-01-10T01:00:39;97753.31;;;-1.38;55.27
55171;BME280;41060;47.510;8.680;2024-01-10T01:03:06;97755.84;;;-1.33;55.34
55171;BME280;41060;47.510;8.680;2024-01-10T01:05:32;97761.06;;;-1.35;55.41
55171;BME280;41060;47.510;8.680;2024-01-10T01:08:01;97756.56;;;-1.28;54.92
55171;BME280;41060;47.510;8.680;2024-01-10T01:10:28;97760.38;;;-1.43;55.70
55171;BME280;41060;47.510;8.680;2024-01-10T01:12:54;97756.94;;;-1.45;55.87
55171;BME280;41060;47.510;8.680;2024-01-10T01:15:22;97754.31;;;-1.43;55.71
55171;BME280;41060;47.510;8.680;2024-01-10T01:17:48;97758.19;;;-1.24;55.52
55171;BME280;41060;47.510;8.680;2024-01-10T01:20:17;97755.72;;;-1.28;55.54
55171;BME280;41060;47.510;8.680;2024-01-10T01:22:45;97759.34;;;-1.36;55.53
55171;BME280;41060;47.510;8.680;2024-01-10T01:25:12;97759.16;;;-1.28;55.59
55171;BME280;41060;47.510;8.680;2024-01-10T01:27:39;97754.84;;;-1.27;55.38
55171;BME280;41060;47.510;8.680;2024-01-10T01:30:07;97758.56;;;-1.39;56.19
55171;BME280;41060;47.510;8.680;2024-01-10T01:32:34;97764.75;;;-1.46;56.25
55171;BME280;41060;47.510;8.680;2024-01-10T01:35:01;97752.78;;;-1.53;56.11
55171;BME280;41060;47.510;8.680;2024-01-10T01:37:28;97764.03;;;-1.53;56.23
55171;BME280;41060;47.510;8.680;2024-01-10T01:39:55;97770.22;;;-1.58;56.22
55171;BME280;41060;47.510;8.680;2024-01-10T01:42:25;97781.00;;;-1.77;56.51
55171;BME280;41060;47.510;8.680;2024-01-10T01:44:52;97777.13;;;-1.57;56.25
55171;BME280;41060;47.510;8.680;2024-01-10T01:47:19;97776.66;;;-1.35;56.21
55171;BME280;41060;47.510;8.680;2024-01-10T01:49:46;97771.84;;;-1.14;55.10
55171;BME280;41060;47.510;8.680;2024-01-10T01:52:14;97769.03;;;-1.04;54.80
55171;BME280;41060;47.510;8.680;2024-01-10T01:54:40;97770.63;;;-1.00;54.74
55171;BME280;41060;47.510;8.680;2024-01-10T01:57:07;97775.25;;;-1.11;55.43
55171;BME280;41060;47.510;8.680;2024-01-10T01:59:36;97766.84;;;-1.23;55.50
55171;BME280;41060;47.510;8.680;2024-01-10T02:02:04;97768.41;;;-1.16;55.60
55171;BME280;41060;47.510;8.680;2024-01-10T02:04:31;97767.47;;;-1.12;55.46
55171;BME280;41060;47.510;8.680;2024-01-10T02:06:59;97766.22;;;-1.33;55.87
55171;BME280;41060;47.510;8.680;2024-01-10T02:09:25;97757.72;;;-1.40;56.05
55171;BME280;41060;47.510;8.680;2024-01-10T02:11:52;97748.84;;;-1.71;56.36
55171;BME280;41060;47.510;8.680;2024-01-10T02:14:20;97764.09;;;-1.54;56.43
55171;BME280;41060;47.510;8.680;2024-01-10T02:16:48;97752.75;;;-1.50;56.38
55171;BME280;41060;47.510;8.680;2024-01-10T02:19:20;97754.03;;;-1.31;55.55
55171;BME280;41060;47.510;8.680;2024-01-10T02:21:47;97739.56;;;-1.41;55.81
55171;BME280;41060;47.510;8.680;2024-01-10T02:24:14;97754.66;;;-1.20;55.77
55171;BME280;41060;47.510;8.680;2024-01-10T02:26:42;97752.38;;;-1.34;55.25
55171;BME280;41060;47.510;8.680;2024-01-10T02:29:10;97755.44;;;-1.55;56.25
55171;BME280;41060;47.510;8.680;2024-01-10T02:31:36;97754.47;;;-1.51;56.03
55171;BME280;41060;47.510;8.680;2024-01-10T02:34:03;97747.50;;;-1.49;55.76
55171;BME280;41060;47.510;8.680;2024-01-10T02:36:32;97750.78;;;-1.39;55.91
55171;BME280;41060;47.510;8.680;2024-01-10T02:38:58;97752.97;;;-1.22;55.17
55171;BME280;41060;47.510;8.680;2024-01-10T02:41:25;97752.28;;;-1.30;55.30
55171;BME280;41060;47.510;8.680;2024-01-10T02:43:54;97749.09;;;-1.42;55.55
55171;BME280;41060;47.510;8.680;2024-01-10T02:46:24;97747.06;;;-1.29;55.63
55171;BME280;41060;47.510;8.680;2024-01-10T02:48:53;97750.50;;;-1.27;55.38
55171;BME280;41060;47.510;8.680;2024-01-10T02:51:21;97746.88;;;-1.21;55.49
55171;BME280;41060;47.510;8.680;2024-01-10T02:53:53;97746.72;;;-1.14;54.64
55171;BME280;41060;47.510;8.680;2024-01-10T02:56:20;97717.59;;;-1.28;54.62
55171;BME280;41060;47.510;8.680;2024-01-10T02:58:47;97737.28;;;-1.18;55.02
55171;BME280;41060;47.510;8.680;2024-01-10T03:01:15;97738.38;;;-1.28;55.04
55171;BME280;41060;47.510;8.680;2024-01-10T03:03:42;97735.63;;;-1.20;54.77
55171;BME280;41060;47.510;8.680;2024-01-10T03:06:09;97739.19;;;-1.24;54.83
55171;BME280;41060;47.510;8.680;2024-01-10T03:08:35;97749.84;;;-1.37;55.16
55171;BME280;41060;47.510;8.680;2024-01-10T03:11:03;97749.06;;;-1.40;55.43
55171;BME280;41060;47.510;8.680;2024-01-10T03:13:29;97749.75;;;-1.32;55.42
55171;BME280;41060;47.510;8.680;2024-01-10T03:15:56;97743.25;;;-1.14;55.18
55171;BME280;41060;47.510;8.680;2024-01-10T03:18:24;97747.63;;;-1.16;54.80
55171;BME280;41060;47.510;8.680;2024-01-10T03:20:51;97741.88;;;-1.29;55.29
55171;BME280;41060;47.510;8.680;2024-01-10T03:23:18;97734.78;;;-1.22;55.51
55171;BME280;41060;47.510;8.680;2024-01-10T03:25:45;97740.59;;;-1.11;54.75
55171;BME280;41060;47.510;8.680;2024-01-10T03:28:15;97750.81;;;-1.04;54.46
55171;BME280;41060;47.510;8.680;2024-01-10T03:30:41;97749.63;;;-1.27;55.34
55171;BME280;41060;47.510;8.680;2024-01-10T03:33:12;97756.75;;;-1.36;55.53
55171;BME280;41060;47.510;8.680;2024-01-10T03:35:40;97749.59;;;-1.24;55.66
55171;BME280;41060;47.510;8.680;2024-01-10T03:38:06;97751.91;;;-1.14;54.89
55171;BME280;41060;47.510;8.680;2024-01-10T03:40:34;97757.59;;;-1.35;54.94
55171;BME280;41060;47.510;8.680;2024-01-10T03:43:01;97748.66;;;-1.23;55.01
55171;BME280;41060;47.510;8.680;2024-01-10T03:45:28;97757.91;;;-1.10;54.96
55171;BME280;41060;47.510;8.680;2024-01-10T03:47:55;97748.41;;;-1.11;54.58
55171;BME280;41060;47.510;8.680;2024-01-10T03:50:22;97747.78;;;-1.22;55.15
55171;BME280;41060;47.510;8.680;2024-01-10T03:52:50;97753.84;;;-1.23;55.23
55171;BME280;41060;47.510;8.680;2024-01-10T03:55:19;97756.63;;;-1.31;55.45
55171;BME280;41060;47.510;8.680;2024-01-10T03:57:45;97758.09;;;-1.18;55.47
55171;BME280;41060;47.510;8.680;2024-01-10T04:00:12;97753.91;;;-1.25;55.52
55171;BME280;41060;47.510;8.680;2024-01-10T04:02:40;97756.63;;;-1.31;55.88
55171;BME280;41060;47.510;8.680;2024-01-10T04:05:07;97753.66;;;-1.14;55.11
55171;BME280;41060;47.510;8.680;2024-01-10T04:07:35;97748.94;;;-0.97;54.76
55171;BME280;41060;47.510;8.680;2024-01-10T04:10:05;97741.81;;;-0.89;54.76
55171;BME280;41060;47.510;8.680;2024-01-10T04:12:35;97745.88;;;-0.79;53.90
55171;BME280;41060;47.510;8.680;2024-01-10T04:15:06;97745.06;;;-0.81;53.62
55171;BME280;41060;47.510;8.680;2024-01-10T04:17:32;97742.34;;;-0.76;53.39
55171;BME280;41060;47.510;8.680;2024-01-10T04:19:59;97746.72;;;-0.78;53.23
55171;BME280;41060;47.510;8.680;2024-01-10T04:22:26;97746.63;;;-0.74;53.41
55171;BME280;41060;47.510;8.680;2024-01-10T04:24:53;97743.16;;;-0.73;53.72
55171;BME280;41060;47.510;8.680;2024-01-10T04:27:21;97744.06;;;-0.75;53.66
55171;BME280;41060;47.510;8.680;2024-01-10T04:29:48;97750.84;;;-0.70;53.32
55171;BME280;41060;47.510;8.680;2024-01-10T04:32:15;97757.63;;;-0.63;53.16
55171;BME280;41060;47.510;8.680;2024-01-10T04:34:41;97753.22;;;-0.61;53.35
55171;BME280;41060;47.510;8.680;2024-01-10T04:37:09;97754.81;;;-0.55;53.02
55171;BME280;41060;47.510;8.680;2024-01-10T04:39:37;97751.31;;;-0.54;52.80
55171;BME280;41060;47.510;8.680;2024-01-10T04:42:05;97746.94;;;-0.52;52.66
55171;BME280;41060;47.510;8.680;2024-01-10T04:44:34;97744.38;;;-0.53;52.85
55171;BME280;41060;47.510;8.680;2024-01-10T04:47:01;97748.03;;;-0.61;53.04
55171;BME280;41060;47.510;8.680;2024-01-10T04:49:30;97754.94;;;-0.60;52.87
55171;BME280;41060;47.510;8.680;2024-01-10T04:51:57;97753.91;;;-0.52;53.08
55171;BME280;41060;47.510;8.680;2024-01-10T04:54:24;97760.38;;;-0.69;53.74
55171;BME280;41060;47.510;8.680;2024-01-10T04:56:51;97763.19;;;-0.78;53.38
55171;BME280;41060;47.510;8.680;2024-01-10T04:59:18;97761.94;;;-0.97;53.70
55171;BME280;41060;47.510;8.680;2024-01-10T05:01:45;97760.25;;;-1.00;54.02
55171;BME280;41060;47.510;8.680;2024-01-10T05:04:12;97759.13;;;-0.88;53.86
55171;BME280;41060;47.510;8.680;2024-01-10T05:06:39;97762.44;;;-0.83;53.51
55171;BME280;41060;47.510;8.680;2024-01-10T05:09:06;97768.34;;;-0.76;53.28
55171;BME280;41060;47.510;8.680;2024-01-10T05:11:33;97773.25;;;-0.64;53.13
55171;BME280;41060;47.510;8.680;2024-01-10T05:14:01;97769.72;;;-0.62;53.13
55171;BME280;41060;47.510;8.680;2024-01-10T05:16:29;97770.75;;;-0.67;53.41
55171;BME280;41060;47.510;8.680;2024-01-10T05:19:00;97753.09;;;-0.90;53.25
55171;BME280;41060;47.510;8.680;2024-01-10T05:21:29;97769.72;;;-0.97;53.74
55171;BME280;41060;47.510;8.680;2024-01-10T05:23:59;97767.13;;;-0.97;53.40
55171;BME280;41060;47.510;8.680;2024-01-10T05:26:25;97767.97;;;-0.95;53.64
55171;BME280;41060;47.510;8.680;2024-01-10T05:28:52;97773.44;;;-1.09;54.38
55171;BME280;41060;47.510;8.680;2024-01-10T05:31:19;97777.03;;;-1.13;54.38
55171;BME280;41060;47.510;8.680;2024-01-10T05:33:46;97773.72;;;-1.19;55.05
55171;BME280;41060;47.510;8.680;2024-01-10T05:36:14;97773.69;;;-1.18;54.44
55171;BME280;41060;47.510;8.680;2024-01-10T05:38:43;97777.00;;;-1.11;54.53
55171;BME280;41060;47.510;8.680;2024-01-10T05:41:10;97776.91;;;-1.08;54.42
55171;BME280;41060;47.510;8.680;2024-01-10T05:43:37;97779.28;;;-0.62;72.43
55171;BME280;41060;47.510;8.680;2024-01-10T05:46:04;97772.53;;;0.28;64.68
55171;BME280;41060;47.510;8.680;2024-01-10T05:48:30;97775.06;;;0.00;53.91
55171;BME280;41060;47.510;8.680;2024-01-10T05:50:59;97782.13;;;-0.37;53.94
55171;BME280;41060;47.510;8.680;2024-01-10T05:53:27;97781.72;;;-0.56;53.95
55171;BME280;41060;47.510;8.680;2024-01-10T05:55:53;97775.91;;;-0.66;53.73
55171;BME280;41060;47.510;8.680;2024-01-10T05:58:20;97781.56;;;-0.85;54.44
55171;BME280;41060;47.510;8.680;2024-01-10T06:00:47;97786.25;;;-1.00;54.75
55171;BME280;41060;47.510;8.680;2024-01-10T06:03:14;97785.41;;;-1.02;55.00
55171;BME280;41060;47.510;8.680;2024-01-10T06:05:41;97778.97;;;-0.85;54.66
55171;BME280;41060;47.510;8.680;2024-01-10T06:08:07;97779.56;;;-0.73;54.04
55171;BME280;41060;47.510;8.680;2024-01-10T06:10:38;97780.88;;;-0.57;53.66
55171;BME280;41060;47.510;8.680;2024-01-10T06:13:08;97780.75;;;-0.50;52.84
55171;BME280;41060;47.510;8.680;2024-01-10T06:15:35;97782.19;;;-0.40;52.60
55171;BME280;41060;47.510;8.680;2024-01-10T06:18:01;97776.91;;;-0.36;52.95
55171;BME280;41060;47.510;8.680;2024-01-10T06:20:29;97783.78;;;-0.35;52.60
55171;BME280;41060;47.510;8.680;2024-01-10T06:22:57;97787.56;;;-0.46;53.14
55171;BME280;41060;47.510;8.680;2024-01-10T06:25:23;97785.09;;;-0.51;53.34
55171;BME280;41060;47.510;8.680;2024-01-10T06:27:56;97780.59;;;-0.46;53.41
55171;BME280;41060;47.510;8.680;2024-01-10T06:30:23;97784.81;;;-0.42;53.32
55171;BME280;41060;47.510;8.680;2024-01-10T06:32:49;97780.34;;;-0.35;53.28
55171;BME280;41060;47.510;8.680;2024-01-10T06:35:16;97778.72;;;-0.39;52.93
55171;BME280;41060;47.510;8.680;2024-01-10T06:37:43;97778.88;;;-0.45;53.16
55171;BME280;41060;47.510;8.680;2024-01-10T06:40:10;97780.09;;;-0.60;53.73
55171;BME280;41060;47.510;8.680;2024-01-10T06:42:38;97783.13;;;-0.78;54.28
55171;BME280;41060;47.510;8.680;2024-01-10T06:45:08;97785.31;;;-0.97;54.30
55171;BME280;41060;47.510;8.680;2024-01-10T06:47:34;97790.22;;;-0.85;54.50
55171;BME280;41060;47.510;8.680;2024-01-10T06:50:03;97787.28;;;-0.71;53.71
55171;BME280;41060;47.510;8.680;2024-01-10T06:52:30;97788.34;;;-0.78;53.62
55171;BME280;41060;47.510;8.680;2024-01-10T06:54:57;97791.22;;;-0.89;54.42
55171;BME280;41060;47.510;8.680;2024-01-10T06:57:24;97793.63;;;-0.81;54.32
55171;BME280;41060;47.510;8.680;2024-01-10T06:59:52;97793.44;;;-0.74;54.13
55171;BME280;41060;47.510;8.680;2024-01-10T07:02:20;97796.59;;;-0.61;53.03
55171;BME280;41060;47.510;8.680;2024-01-10T07:04:47;97790.31;;;-0.52;53.12
55171;BME280;41060;47.510;8.680;2024-01-10T07:07:14;97790.97;;;-0.44;53.24
55171;BME280;41060;47.510;8.680;2024-01-10T07:09:42;97792.69;;;-0.43;53.33
55171;BME280;41060;47.510;8.680;2024-01-10T07:12:12;97797.81;;;-0.40;52.69
55171;BME280;41060;47.510;8.680;2024-01-10T07:14:39;97801.47;;;-0.47;52.85
55171;BME280;41060;47.510;8.680;2024-01-10T07:17:06;97794.34;;;-0.41;52.84
55171;BME280;41060;47.510;8.680;2024-01-10T07:19:35;97800.63;;;-0.49;53.19
55171;BME280;41060;47.510;8.680;2024-01-10T07:22:01;97798.75;;;-0.43;52.87
55171;BME280;41060;47.510;8.680;2024-01-10T07:24:28;97795.22;;;-0.42;52.50
55171;BME280;41060;47.510;8.680;2024-01-10T07:26:55;97796.00;;;-0.37;52.48
55171;BME280;41060;47.510;8.680;2024-01-10T07:29:22;97801.94;;;-0.32;52.75
55171;BME280;41060;47.510;8.680;2024-01-10T07:31:51;97808.00;;;-0.31;52.84
55171;BME280;41060;47.510;8.680;2024-01-10T07:34:18;97803.69;;;-0.34;52.37
55171;BME280;41060;47.510;8.680;2024-01-10T07:36:48;97807.31;;;-0.39;52.94
55171;BME280;41060;47.510;8.680;2024-01-10T07:39:14;97819.69;;;-0.49;56.03
55171;BME280;41060;47.510;8.680;2024-01-10T07:41:44;97813.25;;;-0.34;56.93
55171;BME280;41060;47.510;8.680;2024-01-10T07:44:11;97811.41;;;-0.29;55.15
55171;BME280;41060;47.510;8.680;2024-01-10T07:46:37;97818.47;;;-0.34;53.81
55171;BME280;41060;47.510;8.680;2024-01-10T07:49:05;97821.56;;;-0.20;54.29
55171;BME280;41060;47.510;8.680;2024-01-10T07:51:31;97822.00;;;-0.35;53.77
55171;BME280;41060;47.510;8.680;2024-01-10T07:54:00;97826.91;;;-0.25;54.21
55171;BME280;41060;47.510;8.680;2024-01-10T07:56:27;97825.69;;;-0.11;54.86
55171;BME280;41060;47.510;8.680;2024-01-10T07:58:55;97833.13;;;0.02;54.11
55171;BME280;41060;47.510;8.680;2024-01-10T08:01:22;97828.50;;;0.13;53.38
55171;BME280;41060;47.510;8.680;2024-01-10T08:03:49;97822.16;;;0.23;53.16
55171;BME280;41060;47.510;8.680;2024-01-10T08:06:15;97826.47;;;0.24;52.43
55171;BME280;41060;47.510;8.680;2024-01-10T08:08:43;97830.66;;;0.30;52.67
55171;BME280;41060;47.510;8.680;2024-01-10T08:11:13;97825.97;;;0.10;52.70
55171;BME280;41060;47.510;8.680;2024-01-10T08:13:41;97827.31;;;-0.06;53.30
55171;BME280;41060;47.510;8.680;2024-01-10T08:16:08;97828.94;;;-0.03;53.43
55171;BME280;41060;47.510;8.680;2024-01-10T08:18:37;97826.75;;;-0.19;53.35
55171;BME280;41060;47.510;8.680;2024-01-10T08:21:03;97830.09;;;-0.13;53.51
55171;BME280;41060;47.510;8.680;2024-01-10T08:23:30;97838.97;;;-0.21;53.83
55171;BME280;41060;47.510;8.680;2024-01-10T08:25:57;97834.47;;;-0.16;53.71
55171;BME280;41060;47.510;8.680;2024-01-10T08:28:25;97824.94;;;-0.15;53.63
55171;BME280;41060;47.510;8.680;2024-01-10T08:30:52;97830.31;;;-0.21;54.20
55171;BME280;41060;47.510;8.680;2024-01-10T08:33:20;97834.59;;;-0.20;54.33
55171;BME280;41060;47.510;8.680;2024-01-10T08:35:46;97843.22;;;-0.18;54.01
55171;BME280;41060;47.510;8.680;2024-01-10T08:38:13;97842.09;;;-0.08;53.51
55171;BME280;41060;47.510;8.680;2024-01-10T08:40:40;97845.97;;;-0.24;53.65
55171;BME280;41060;47.510;8.680;2024-01-10T08:43:07;97853.13;;;-0.32;54.79
55171;BME280;41060;47.510;8.680;2024-01-10T08:45:35;97849.78;;;-0.37;54.41
55171;BME280;41060;47.510;8.680;2024-01-10T08:48:02;97852.81;;;-0.20;54.22
55171;BME280;41060;47.510;8.680;2024-01-10T08:50:30;97843.75;;;-0.05;53.90
55171;BME280;41060;47.510;8.680;2024-01-10T08:52:56;97839.00;;;0.10;53.82
55171;BME280;41060;47.510;8.680;2024-01-10T08:55:23;97843.91;;;0.22;53.15
55171;BME280;41060;47.510;8.680;2024-01-10T08:57:50;97843.59;;;0.33;52.54
55171;BME280;41060;47.510;8.680;2024-01-10T09:00:18;97848.63;;;0.39;52.86
55171;BME280;41060;47.510;8.680;2024-01-10T09:02:47;97859.69;;;0.47;52.76
55171;BME280;41060;47.510;8.680;2024-01-10T09:05:14;97861.38;;;0.50;52.02
55171;BME280;41060;47.510;8.680;2024-01-10T09:07:40;97862.44;;;0.43;52.62
55171;BME280;41060;47.510;8.680;2024-01-10T09:10:10;97856.81;;;0.26;52.90
55171;BME280;41060;47.510;8.680;2024-01-10T09:12:37;97869.00;;;-0.07;54.44
55171;BME280;41060;47.510;8.680;2024-01-10T09:15:04;97865.75;;;-0.17;53.86
55171;BME280;41060;47.510;8.680;2024-01-10T09:17:34;97871.59;;;-0.07;54.02
55171;BME280;41060;47.510;8.680;2024-01-10T09:20:02;97870.34;;;0.07;53.87
55171;BME280;41060;47.510;8.680;2024-01-10T09:22:28;97865.41;;;-0.03;54.14
55171;BME280;41060;47.510;8.680;2024-01-10T09:24:56;97865.78;;;-0.19;55.21
55171;BME280;41060;47.510;8.680;2024-01-10T09:27:25;97864.94;;;-0.19;55.11
55171;BME280;41060;47.510;8.680;2024-01-10T09:29:51;97872.03;;;-0.26;55.61
55171;BME280;41060;47.510;8.680;2024-01-10T09:32:18;97874.38;;;-0.15;55.52
55171;BME280;41060;47.510;8.680;2024-01-10T09:34:45;97873.50;;;-0.14;55.30
55171;BME280;41060;47.510;8.680;2024-01-10T09:37:13;97882.56;;;0.04;55.12
55171;BME280;41060;47.510;8.680;2024-01-10T09:39:40;97886.03;;;0.04;55.03
55171;BME280;41060;47.510;8.680;2024-01-10T09:42:07;97881.00;;;-0.02;56.04
55171;BME280;41060;47.510;8.680;2024-01-10T09:44:34;97885.31;;;-0.01;55.66
55171;BME280;41060;47.510;8.680;2024-01-10T09:47:01;97883.41;;;0.06;55.38
55171;BME280;41060;47.510;8.680;2024-01-10T09:49:28;97879.19;;;0.02;55.61
55171;BME280;41060;47.510;8.680;2024-01-10T09:51:58;97879.28;;;-0.03;56.18
55171;BME280;41060;47.510;8.680;2024-01-10T09:54:29;97876.50;;;0.03;55.75
55171;BME280;41060;47.510;8.680;2024-01-10T09:56:56;97881.66;;;0.06;56.02
55171;BME280;41060;47.510;8.680;2024-01-10T09:59:24;97886.88;;;0.06;56.52
55171;BME280;41060;47.510;8.680;2024-01-10T10:01:52;97879.13;;;0.03;57.34
55171;BME280;41060;47.510;8.680;2024-01-10T10:04:19;97893.63;;;0.13;56.85
55171;BME280;41060;47.510;8.680;2024-01-10T10:06:58;97890.38;;;0.38;56.28
55171;BME280;41060;47.510;8.680;2024-01-10T10:09:26;97889.03;;;0.54;55.43
55171;BME280;41060;47.510;8.680;2024-01-10T10:11:55;97882.81;;;0.61;55.02
55171;BME280;41060;47.510;8.680;2024-01-10T10:14:23;97892.78;;;0.45;55.21
55171;BME280;41060;47.510;8.680;2024-01-10T10:16:52;97885.56;;;0.55;55.43
55171;BME280;41060;47.510;8.680;2024-01-10T10:19:22;97882.63;;;0.67;55.24
55171;BME280;41060;47.510;8.680;2024-01-10T10:21:51;97879.84;;;0.73;55.48
55171;BME280;41060;47.510;8.680;2024-01-10T10:24:18;97888.13;;;0.56;55.37
55171;BME280;41060;47.510;8.680;2024-01-10T10:26:47;97891.16;;;0.40;56.01
55171;BME280;41060;47.510;8.680;2024-01-10T10:29:17;97880.38;;;0.22;56.57
55171;BME280;41060;47.510;8.680;2024-01-10T10:31:47;97877.66;;;0.26;57.08
55171;BME280;41060;47.510;8.680;2024-01-10T10:34:20;97882.63;;;0.35;57.17
55171;BME280;41060;47.510;8.680;2024-01-10T10:36:48;97878.16;;;0.40;56.50
55171;BME280;41060;47.510;8.680;2024-01-10T10:39:16;97879.91;;;0.39;56.91
55171;BME280;41060;47.510;8.680;2024-01-10T10:41:43;97880.47;;;0.18;57.09
55171;BME280;41060;47.510;8.680;2024-01-10T10:44:17;97882.97;;;0.22;57.58
55171;BME280;41060;47.510;8.680;2024-01-10T10:46:49;97882.22;;;0.50;56.88
55171;BME280;41060;47.510;8.680;2024-01-10T10:49:16;97878.53;;;0.26;57.57
55171;BME280;41060;47.510;8.680;2024-01-10T10:51:46;97877.19;;;0.44;56.74
55171;BME280;41060;47.510;8.680;2024-01-10T10:54:14;97873.59;;;0.48;57.00
55171;BME280;41060;47.510;8.680;2024-01-10T10:56:44;97871.13;;;0.43;56.59
55171;BME280;41060;47.510;8.680;2024-01-10T10:59:13;97874.53;;;0.45;56.99
55171;BME280;41060;47.510;8.680;2024-01-10T11:01:43;97878.06;;;0.43;57.11
55171;BME280;41060;47.510;8.680;2024-01-10T11:04:13;97878.16;;;0.40;57.34
55171;BME280;41060;47.510;8.680;2024-01-10T11:06:40;97876.47;;;0.39;58.03
55171;BME280;41060;47.510;8.680;2024-01-10T11:09:09;97871.34;;;0.34;58.32
55171;BME280;41060;47.510;8.680;2024-01-10T11:11:50;97867.00;;;0.35;58.60
55171;BME280;41060;47.510;8.680;2024-01-10T11:14:35;97861.06;;;0.30;58.84
55171;BME280;41060;47.510;8.680;2024-01-10T11:17:29;97855.94;;;0.27;59.36
55171;BME280;41060;47.510;8.680;2024-01-10T11:20:22;97862.63;;;0.37;59.30
55171;BME280;41060;47.510;8.680;2024-01-10T11:23:22;97868.44;;;0.46;58.91
55171;BME280;41060;47.510;8.680;2024-01-10T11:25:58;97866.88;;;0.39;58.77
55171;BME280;41060;47.510;8.680;2024-01-10T11:28:25;97865.72;;;0.17;58.96
55171;BME280;41060;47.510;8.680;2024-01-10T11:30:54;97864.31;;;0.05;60.50
55171;BME280;41060;47.510;8.680;2024-01-10T11:33:22;97862.03;;;0.26;59.63
55171;BME280;41060;47.510;8.680;2024-01-10T11:36:07;97865.97;;;0.40;59.16
55171;BME280;41060;47.510;8.680;2024-01-10T11:38:42;97852.50;;;0.57;58.85
55171;BME280;41060;47.510;8.680;2024-01-10T11:41:10;97853.63;;;0.78;57.84
55171;BME280;41060;47.510;8.680;2024-01-10T11:43:38;97857.72;;;0.86;57.65
55171;BME280;41060;47.510;8.680;2024-01-10T11:46:09;97845.34;;;0.93;57.91
55171;BME280;41060;47.510;8.680;2024-01-10T11:48:38;97844.88;;;0.80;57.93
55171;BME280;41060;47.510;8.680;2024-01-10T11:51:09;97835.16;;;0.85;57.95
55171;BME280;41060;47.510;8.680;2024-01-10T11:53:42;97836.78;;;0.89;57.47
55171;BME280;41060;47.510;8.680;2024-01-10T11:56:13;97823.19;;;0.49;58.07
55171;BME280;41060;47.510;8.680;2024-01-10T11:58:54;97829.59;;;0.05;59.76
55171;BME280;41060;47.510;8.680;2024-01-10T12:01:24;97836.53;;;0.06;59.99
55171;BME280;41060;47.510;8.680;2024-01-10T12:03:54;97831.66;;;0.24;59.75
55171;BME280;41060;47.510;8.680;2024-01-10T12:06:23;97840.38;;;0.54;58.80
55171;BME280;41060;47.510;8.680;2024-01-10T12:08:50;97835.53;;;0.73;57.71
55171;BME280;41060;47.510;8.680;2024-01-10T12:11:18;97841.22;;;0.86;57.27
55171;BME280;41060;47.510;8.680;2024-01-10T12:13:45;97840.50;;;0.81;57.83
55171;BME280;41060;47.510;8.680;2024-01-10T12:16:13;97842.91;;;0.88;57.88
55171;BME280;41060;47.510;8.680;2024-01-10T12:18:45;97841.25;;;0.84;57.92
55171;BME280;41060;47.510;8.680;2024-01-10T12:21:12;97835.97;;;0.87;58.18
55171;BME280;41060;47.510;8.680;2024-01-10T12:23:38;97834.66;;;0.73;58.93
55171;BME280;41060;47.510;8.680;2024-01-10T12:26:07;97836.63;;;0.65;59.48
55171;BME280;41060;47.510;8.680;2024-01-10T12:28:35;97847.31;;;0.55;59.49
55171;BME280;41060;47.510;8.680;2024-01-10T12:31:03;97840.34;;;0.56;59.76
55171;BME280;41060;47.510;8.680;2024-01-10T12:33:30;97843.16;;;0.48;59.88
55171;BME280;41060;47.510;8.680;2024-01-10T12:36:08;97840.31;;;-0.06;61.24
55171;BME280;41060;47.510;8.680;2024-01-10T12:38:35;97836.84;;;0.26;61.06
55171;BME280;41060;47.510;8.680;2024-01-10T12:41:04;97830.13;;;0.17;60.73
55171;BME280;41060;47.510;8.680;2024-01-10T12:43:31;97826.38;;;0.28;60.35
55171;BME280;41060;47.510;8.680;2024-01-10T12:46:05;97827.41;;;0.22;61.05
55171;BME280;41060;47.510;8.680;2024-01-10T12:48:33;97826.66;;;0.17;60.59
55171;BME280;41060;47.510;8.680;2024-01-10T12:51:02;97831.19;;;0.10;61.42
55171;BME280;41060;47.510;8.680;2024-01-10T12:53:35;97835.84;;;-0.01;61.93
55171;BME280;41060;47.510;8.680;2024-01-10T12:56:02;97833.75;;;0.12;61.27
55171;BME280;41060;47.510;8.680;2024-01-10T12:58:34;97789.94;;;-0.05;60.74
55171;BME280;41060;47.510;8.680;2024-01-10T13:01:03;97838.94;;;0.46;60.15
55171;BME280;41060;47.510;8.680;2024-01-10T13:03:30;97832.34;;;0.62;60.33
55171;BME280;41060;47.510;8.680;2024-01-10T13:05:56;97831.22;;;0.41;60.57
55171;BME280;41060;47.510;8.680;2024-01-10T13:08:24;97829.91;;;0.25;60.70